createdAt,value
2023-01-27T00:03:54.543Z,102565.59
2023-01-27T00:08:57.676Z,102584.34
2023-01-27T00:14:04.417Z,102572.25
2023-01-27T00:19:19.931Z,102566.25
2023-01-27T00:24:50.768Z,102559.34
2023-01-27T00:30:23.259Z,102567.97
2023-01-27T00:35:31.000Z,102581.00
2023-01-27T00:40:37.807Z,102580.06
2023-01-27T00:45:54.425Z,102580.06
2023-01-27T00:50:57.606Z,102586.03
2023-01-27T00:56:03.468Z,102588.53
2023-01-27T01:01:19.590Z,102584.72
2023-01-27T01:06:32.112Z,102588.09
2023-01-27T01:11:47.914Z,102599.16
2023-01-27T01:17:06.452Z,102593.84
2023-01-27T01:22:16.851Z,102598.63
2023-01-27T01:27:22.483Z,102585.84
2023-01-27T01:32:31.019Z,102604.47
2023-01-27T01:43:08.242Z,102606.78
2023-01-27T01:48:46.653Z,102608.06
2023-01-27T01:53:58.159Z,102616.31
2023-01-27T01:59:15.812Z,102623.84
2023-01-27T02:04:30.526Z,102613.53
2023-01-27T02:09:38.079Z,102607.19
2023-01-27T02:14:53.298Z,102608.75
2023-01-27T02:20:14.715Z,102621.34
2023-01-27T02:25:30.812Z,102613.41
2023-01-27T02:30:39.361Z,102616.00
2023-01-27T02:36:11.417Z,102619.66
2023-01-27T02:41:28.347Z,102620.44
2023-01-27T02:46:35.395Z,102614.81
2023-01-27T02:51:41.421Z,102618.47
2023-01-27T02:56:50.132Z,102617.75
2023-01-27T03:02:03.972Z,102619.31
2023-01-27T03:07:10.501Z,102619.78
2023-01-27T03:12:25.702Z,102639.56
2023-01-27T03:17:52.258Z,102647.88
2023-01-27T03:22:58.603Z,102640.84
2023-01-27T03:28:06.018Z,102637.38
2023-01-27T03:33:43.082Z,102655.88
2023-01-27T03:39:41.176Z,102665.97
2023-01-27T03:45:02.429Z,102660.59
2023-01-27T03:55:44.686Z,102662.56
2023-01-27T04:00:51.142Z,102662.41
2023-01-27T04:06:19.529Z,102657.72
2023-01-27T04:12:00.545Z,102676.25
2023-01-27T04:17:08.466Z,102691.69
2023-01-27T04:22:30.714Z,102686.38
2023-01-27T04:27:41.655Z,102689.03
2023-01-27T04:32:46.238Z,102691.34
2023-01-27T04:37:51.796Z,102696.69
2023-01-27T04:43:00.264Z,102711.38
2023-01-27T04:48:09.164Z,102708.47
2023-01-27T04:53:15.564Z,102712.75
2023-01-27T04:58:30.573Z,102705.44
2023-01-27T05:03:33.568Z,102698.84
2023-01-27T05:08:38.714Z,102701.44
2023-01-27T05:13:47.185Z,102717.03
2023-01-27T05:18:54.968Z,102711.38
2023-01-27T05:24:08.594Z,102702.78
2023-01-27T05:29:19.567Z,102710.13
2023-01-27T05:34:30.993Z,102711.66
2023-01-27T05:39:43.803Z,102716.53
2023-01-27T05:44:50.510Z,102717.41
2023-01-27T05:49:57.267Z,102725.38
2023-01-27T05:55:07.704Z,102732.25
2023-01-27T06:00:29.634Z,102729.66
2023-01-27T06:05:32.752Z,102740.66
2023-01-27T06:11:02.644Z,102743.09
2023-01-27T06:16:12.157Z,102753.94
2023-01-27T06:21:22.802Z,102753.94
2023-01-27T06:26:40.579Z,102763.56
2023-01-27T06:31:52.266Z,102767.25
2023-01-27T06:37:01.133Z,102771.81
2023-01-27T06:42:16.107Z,102776.09
2023-01-27T06:47:28.363Z,102772.72
2023-01-27T06:52:35.487Z,102779.75
2023-01-27T06:57:39.821Z,102773.78
2023-01-27T07:02:45.927Z,102779.75
2023-01-27T07:08:06.441Z,102777.16
2023-01-27T07:13:23.777Z,102771.03
2023-01-27T07:18:27.736Z,102773.78
2023-01-27T07:23:36.784Z,102779.91
2023-01-27T07:28:42.485Z,102790.94
2023-01-27T07:33:50.846Z,102790.78
2023-01-27T07:39:00.101Z,102795.69
2023-01-27T07:44:15.409Z,102796.31
2023-01-27T07:49:20.640Z,102797.88
2023-01-27T07:54:28.328Z,102796.03
2023-01-27T07:59:44.288Z,102801.38
2023-01-27T08:05:00.647Z,102800.63
2023-01-27T08:10:11.615Z,102810.78
2023-01-27T08:15:19.226Z,102805.41
2023-01-27T08:20:33.035Z,102820.88
2023-01-27T08:25:38.970Z,102819.44
2023-01-27T08:30:53.140Z,102814.78
2023-01-27T08:35:57.196Z,102818.19
2023-01-27T08:46:46.919Z,102828.34
2023-01-27T08:51:50.011Z,102839.19
2023-01-27T08:56:58.419Z,102845.00
2023-01-27T09:02:23.598Z,102859.66
2023-01-27T09:07:28.959Z,102851.66
2023-01-27T09:12:34.975Z,102852.09
2023-01-27T09:17:53.511Z,102856.69
2023-01-27T09:23:10.389Z,102862.28
2023-01-27T09:28:18.078Z,102870.03
2023-01-27T09:33:27.025Z,102885.88
2023-01-27T09:38:47.262Z,102878.91
2023-01-27T09:44:33.396Z,102877.19
2023-01-27T09:50:08.874Z,102874.66
2023-01-27T09:55:27.862Z,102875.47
2023-01-27T10:00:46.858Z,102879.28
2023-01-27T10:06:22.058Z,102883.00
2023-01-27T10:12:01.822Z,102853.31
2023-01-27T10:17:46.096Z,102861.03
2023-01-27T10:23:32.181Z,102875.44
2023-01-27T10:28:37.790Z,102877.59
2023-01-27T10:34:00.608Z,102881.81
2023-01-27T10:39:32.122Z,102881.00
2023-01-27T10:45:09.170Z,102881.28
2023-01-27T10:50:53.890Z,102889.19
2023-01-27T10:56:18.246Z,102878.13
2023-01-27T11:01:33.512Z,102889.22
2023-01-27T11:06:47.474Z,102880.88
2023-01-27T11:12:03.226Z,102877.78
2023-01-27T11:17:30.429Z,102881.13
2023-01-27T11:22:50.167Z,102883.34
2023-01-27T11:28:32.511Z,102878.03
2023-01-27T11:33:51.968Z,102878.88
2023-01-27T11:39:07.752Z,102859.16
2023-01-27T11:44:25.917Z,102864.28
2023-01-27T11:49:41.127Z,102859.72
2023-01-27T11:55:00.181Z,102855.41
2023-01-27T12:00:30.799Z,102857.91
2023-01-27T12:05:46.896Z,102847.72
2023-01-27T12:11:00.819Z,102848.88
2023-01-27T12:16:22.573Z,102843.91
2023-01-27T12:21:38.033Z,102846.16
2023-01-27T12:27:00.582Z,102841.88
2023-01-27T12:32:05.536Z,102832.66
2023-01-27T12:37:23.211Z,102831.03
2023-01-27T12:42:51.692Z,102820.69
2023-01-27T12:48:16.730Z,102824.56
2023-01-27T12:53:30.831Z,102821.66
2023-01-27T12:58:40.439Z,102823.56
2023-01-27T13:04:29.698Z,102824.03
2023-01-27T13:09:42.300Z,102824.81
2023-01-27T13:15:03.002Z,102825.88
2023-01-27T13:20:28.586Z,102817.97
2023-01-27T13:25:41.198Z,102812.53
2023-01-27T13:31:06.543Z,102821.44
2023-01-27T13:36:26.026Z,102820.34
2023-01-27T13:41:58.890Z,102818.25
2023-01-27T13:47:26.706Z,102830.69
2023-01-27T13:53:06.155Z,102825.03
2023-01-27T13:58:24.523Z,102825.69
2023-01-27T14:04:07.060Z,102823.09
2023-01-27T14:09:32.743Z,102818.31
2023-01-27T14:15:05.684Z,102818.69
2023-01-27T14:20:40.746Z,102813.78
2023-01-27T14:25:58.493Z,102825.13
2023-01-27T14:31:12.233Z,102834.34
2023-01-27T14:36:45.460Z,102832.03
2023-01-27T14:42:02.011Z,102842.41
2023-01-27T14:47:30.381Z,102846.91
2023-01-27T14:52:45.101Z,102855.06
2023-01-27T14:58:13.993Z,102863.94
2023-01-27T15:04:02.371Z,102864.06
2023-01-27T15:15:45.739Z,102868.16
2023-01-27T15:21:34.421Z,102868.22
2023-01-27T15:27:08.529Z,102870.38
2023-01-27T15:32:37.774Z,102881.00
2023-01-27T15:38:16.315Z,102878.09
2023-01-27T15:43:28.043Z,102889.16
2023-01-27T15:48:47.639Z,102891.16
2023-01-27T15:54:12.063Z,102895.31
2023-01-27T15:59:22.695Z,102887.69
2023-01-27T16:04:36.252Z,102885.41
2023-01-27T16:09:42.942Z,102877.47
2023-01-27T16:14:48.421Z,102883.44
2023-01-27T16:20:22.128Z,102892.75
2023-01-27T16:25:42.160Z,102878.94
2023-01-27T16:31:01.484Z,102901.63
2023-01-27T16:36:24.233Z,102904.97
2023-01-27T16:41:37.903Z,102910.06
2023-01-27T16:47:16.085Z,102906.41
2023-01-27T16:52:42.824Z,102915.19
2023-01-27T16:58:10.686Z,102932.78
2023-01-27T17:04:07.727Z,102932.47
2023-01-27T17:09:27.736Z,102941.19
2023-01-27T17:14:42.244Z,102949.94
2023-01-27T17:20:05.536Z,102949.63
2023-01-27T17:25:22.079Z,102952.34
2023-01-27T17:30:36.692Z,102951.44
2023-01-27T17:35:57.689Z,102957.72
2023-01-27T17:41:12.870Z,102960.59
2023-01-27T17:46:32.832Z,102970.75
2023-01-27T17:51:44.039Z,102973.34
2023-01-27T17:57:03.562Z,102965.53
2023-01-27T18:02:49.620Z,102982.66
2023-01-27T18:08:18.918Z,102979.00
2023-01-27T18:16:07.189Z,102990.03
2023-01-27T18:19:29.300Z,102992.63
2023-01-27T18:24:34.982Z,103002.91
2023-01-27T18:29:45.005Z,102996.47
2023-01-27T18:34:50.226Z,102987.31
2023-01-27T18:39:58.722Z,102994.00
2023-01-27T18:45:16.529Z,103009.63
2023-01-27T18:50:26.653Z,103015.28
2023-01-27T18:55:43.621Z,103011.16
2023-01-27T19:01:00.581Z,103025.84
2023-01-27T19:06:12.325Z,103022.94
2023-01-27T19:11:18.313Z,103036.41
2023-01-27T19:16:30.879Z,103040.06
2023-01-27T19:21:45.992Z,103039.00
2023-01-27T19:26:50.095Z,103042.06
2023-01-27T19:32:01.995Z,103043.59
2023-01-27T19:37:23.706Z,103041.59
2023-01-27T19:42:32.021Z,103032.56
2023-01-27T19:48:00.256Z,103040.53
2023-01-27T19:53:06.120Z,103051.22
2023-01-27T19:58:27.467Z,103046.31
2023-01-27T20:03:31.959Z,103058.25
2023-01-27T20:13:55.204Z,103055.66
2023-01-27T20:19:02.248Z,103055.34
2023-01-27T20:24:06.543Z,103056.13
2023-01-27T20:29:16.643Z,103059.03
2023-01-27T20:34:28.066Z,103051.69
2023-01-27T20:39:41.418Z,103053.97
2023-01-27T20:45:01.608Z,103047.84
2023-01-27T20:50:07.752Z,103053.53
2023-01-27T20:55:19.988Z,103055.22
2023-01-27T21:00:29.203Z,103049.41
2023-01-27T21:05:43.040Z,103049.25
2023-01-27T21:11:07.297Z,103059.78
2023-01-27T21:16:16.732Z,103057.78
2023-01-27T21:21:29.921Z,103045.09
2023-01-27T21:26:36.750Z,103043.56
2023-01-27T21:31:45.621Z,103039.91
2023-01-27T21:37:19.813Z,103026.56
2023-01-27T21:42:57.688Z,103034.81
2023-01-27T21:48:05.763Z,103033.75
2023-01-27T21:53:29.068Z,103019.41
2023-01-27T21:58:34.787Z,103027.22
2023-01-27T22:03:48.193Z,103029.34
2023-01-27T22:08:58.566Z,103031.31
2023-01-27T22:14:01.746Z,103035.78
2023-01-27T22:19:07.697Z,103020.66
2023-01-27T22:24:24.451Z,103032.72
2023-01-27T22:29:35.434Z,103026.75
2023-01-27T22:34:46.707Z,103021.22
2023-01-27T22:39:57.658Z,103023.56
2023-01-27T22:45:09.292Z,103026.13
2023-01-27T22:50:25.557Z,103016.94
2023-01-27T22:55:54.705Z,103013.75
2023-01-27T23:01:03.402Z,103008.97
2023-01-27T23:06:14.072Z,103003.75
2023-01-27T23:11:32.844Z,103007.91
2023-01-27T23:17:03.335Z,103008.97
2023-01-27T23:22:09.379Z,103019.50
2023-01-27T23:32:50.683Z,103019.31
2023-01-27T23:38:19.374Z,103016.72
2023-01-27T23:43:39.058Z,103026.78
2023-01-27T23:49:04.230Z,103011.47
2023-01-27T23:54:12.580Z,103023.59
2023-01-27T23:59:35.290Z,103027.69
